sensor_id;sensor_type;location;lat;lon;timestamp;P1;durP1;ratioP1;P2;durP2;ratioP2
669;SDS011;317;48.758;9.302;2022-09-12T00:01:12;9.17;;;8.30;;
669;SDS011;317;48.758;9.302;2022-09-12T00:03:40;8.17;;;7.57;;
669;SDS011;317;48.758;9.302;2022-09-12T00:06:08;8.40;;;7.80;;
669;SDS011;317;48.758;9.302;2022-09-12T00:08:37;8.80;;;8.00;;
669;SDS011;317;48.758;9.302;2022-09-12T00:11:05;9.20;;;8.40;;
669;SDS011;317;48.758;9.302;2022-09-12T00:13:33;9.50;;;8.80;;
669;SDS011;317;48.758;9.302;2022-09-12T00:16:01;9.13;;;8.50;;
669;SDS011;317;48.758;9.302;2022-09-12T00:18:29;9.60;;;8.90;;
669;SDS011;317;48.758;9.302;2022-09-12T00:20:56;9.33;;;8.73;;
669;SDS011;317;48.758;9.302;2022-09-12T00:23:27;8.60;;;8.00;;
669;SDS011;317;48.758;9.302;2022-09-12T00:25:56;8.97;;;8.27;;
669;SDS011;317;48.758;9.302;2022-09-12T00:28:23;9.23;;;8.53;;
669;SDS011;317;48.758;9.302;2022-09-12T00:30:49;13.20;;;9.40;;
669;SDS011;317;48.758;9.302;2022-09-12T00:33:16;9.57;;;8.53;;
669;SDS011;317;48.758;9.302;2022-09-12T00:35:43;10.53;;;9.83;;
669;SDS011;317;48.758;9.302;2022-09-12T00:38:11;9.17;;;8.47;;
669;SDS011;317;48.758;9.302;2022-09-12T00:40:38;8.83;;;8.27;;
669;SDS011;317;48.758;9.302;2022-09-12T00:43:08;10.83;;;9.90;;
669;SDS011;317;48.758;9.302;2022-09-12T00:45:38;8.63;;;8.13;;
669;SDS011;317;48.758;9.302;2022-09-12T00:48:07;9.27;;;8.67;;
669;SDS011;317;48.758;9.302;2022-09-12T00:50:43;9.87;;;9.07;;
669;SDS011;317;48.758;9.302;2022-09-12T00:53:10;11.37;;;10.47;;
669;SDS011;317;48.758;9.302;2022-09-12T00:55:37;10.20;;;9.30;;
669;SDS011;317;48.758;9.302;2022-09-12T00:58:11;9.40;;;8.80;;
669;SDS011;317;48.758;9.302;2022-09-12T01:00:42;10.60;;;9.80;;
669;SDS011;317;48.758;9.302;2022-09-12T01:03:10;9.43;;;8.83;;
669;SDS011;317;48.758;9.302;2022-09-12T01:05:39;9.03;;;8.33;;
669;SDS011;317;48.758;9.302;2022-09-12T01:08:09;9.83;;;8.93;;
669;SDS011;317;48.758;9.302;2022-09-12T01:10:37;10.07;;;9.17;;
669;SDS011;317;48.758;9.302;2022-09-12T01:13:07;10.87;;;10.17;;
669;SDS011;317;48.758;9.302;2022-09-12T01:15:37;9.90;;;9.10;;
669;SDS011;317;48.758;9.302;2022-09-12T01:18:08;9.97;;;9.20;;
669;SDS011;317;48.758;9.302;2022-09-12T01:20:47;11.83;;;10.93;;
669;SDS011;317;48.758;9.302;2022-09-12T01:26:37;10.67;;;9.87;;
669;SDS011;317;48.758;9.302;2022-09-12T01:29:29;10.20;;;9.50;;
669;SDS011;317;48.758;9.302;2022-09-12T01:32:14;10.20;;;9.50;;
669;SDS011;317;48.758;9.302;2022-09-12T01:34:51;10.77;;;10.17;;
669;SDS011;317;48.758;9.302;2022-09-12T01:37:25;11.47;;;10.53;;
669;SDS011;317;48.758;9.302;2022-09-12T01:40:00;12.60;;;10.83;;
669;SDS011;317;48.758;9.302;2022-09-12T01:42:30;11.57;;;10.77;;
669;SDS011;317;48.758;9.302;2022-09-12T01:45:06;11.47;;;10.60;;
669;SDS011;317;48.758;9.302;2022-09-12T01:47:40;10.50;;;9.70;;
669;SDS011;317;48.758;9.302;2022-09-12T01:50:11;11.13;;;10.10;;
669;SDS011;317;48.758;9.302;2022-09-12T01:52:43;11.27;;;10.37;;
669;SDS011;317;48.758;9.302;2022-09-12T01:55:15;12.17;;;11.27;;
669;SDS011;317;48.758;9.302;2022-09-12T01:57:48;11.77;;;10.57;;
669;SDS011;317;48.758;9.302;2022-09-12T02:00:18;10.40;;;9.50;;
669;SDS011;317;48.758;9.302;2022-09-12T02:02:47;11.13;;;10.30;;
669;SDS011;317;48.758;9.302;2022-09-12T02:05:21;12.23;;;11.13;;
669;SDS011;317;48.758;9.302;2022-09-12T02:07:54;11.40;;;10.50;;
669;SDS011;317;48.758;9.302;2022-09-12T02:10:28;11.57;;;10.67;;
669;SDS011;317;48.758;9.302;2022-09-12T02:12:57;11.87;;;11.00;;
669;SDS011;317;48.758;9.302;2022-09-12T02:15:29;12.33;;;11.23;;
669;SDS011;317;48.758;9.302;2022-09-12T02:18:01;12.07;;;11.17;;
669;SDS011;317;48.758;9.302;2022-09-12T02:20:32;11.83;;;10.80;;
669;SDS011;317;48.758;9.302;2022-09-12T02:23:00;12.23;;;11.30;;
669;SDS011;317;48.758;9.302;2022-09-12T02:25:32;11.77;;;10.97;;
669;SDS011;317;48.758;9.302;2022-09-12T02:28:03;12.33;;;11.40;;
669;SDS011;317;48.758;9.302;2022-09-12T02:30:36;12.77;;;11.67;;
669;SDS011;317;48.758;9.302;2022-09-12T02:33:11;11.27;;;10.50;;
669;SDS011;317;48.758;9.302;2022-09-12T02:35:46;11.50;;;10.67;;
669;SDS011;317;48.758;9.302;2022-09-12T02:38:19;12.13;;;11.17;;
669;SDS011;317;48.758;9.302;2022-09-12T02:40:52;11.53;;;10.70;;
669;SDS011;317;48.758;9.302;2022-09-12T02:43:19;13.07;;;12.07;;
669;SDS011;317;48.758;9.302;2022-09-12T02:45:46;11.70;;;10.80;;
669;SDS011;317;48.758;9.302;2022-09-12T02:48:15;12.10;;;11.20;;
669;SDS011;317;48.758;9.302;2022-09-12T02:50:46;11.90;;;11.00;;
669;SDS011;317;48.758;9.302;2022-09-12T02:53:13;12.17;;;11.27;;
669;SDS011;317;48.758;9.302;2022-09-12T02:55:40;12.87;;;11.87;;
669;SDS011;317;48.758;9.302;2022-09-12T02:58:09;12.53;;;11.63;;
669;SDS011;317;48.758;9.302;2022-09-12T03:00:40;12.43;;;11.40;;
669;SDS011;317;48.758;9.302;2022-09-12T03:03:25;12.70;;;11.70;;
669;SDS011;317;48.758;9.302;2022-09-12T03:06:04;12.53;;;11.70;;
669;SDS011;317;48.758;9.302;2022-09-12T03:08:50;12.27;;;11.27;;
669;SDS011;317;48.758;9.302;2022-09-12T03:11:27;11.80;;;11.00;;
669;SDS011;317;48.758;9.302;2022-09-12T03:14:17;12.43;;;11.00;;
669;SDS011;317;48.758;9.302;2022-09-12T03:16:59;12.20;;;11.20;;
669;SDS011;317;48.758;9.302;2022-09-12T03:19:35;12.23;;;11.40;;
669;SDS011;317;48.758;9.302;2022-09-12T03:22:12;13.50;;;12.40;;
669;SDS011;317;48.758;9.302;2022-09-12T03:24:47;13.90;;;12.80;;
669;SDS011;317;48.758;9.302;2022-09-12T03:27:19;19.23;;;17.83;;
669;SDS011;317;48.758;9.302;2022-09-12T03:29:52;23.03;;;21.20;;
669;SDS011;317;48.758;9.302;2022-09-12T03:32:20;22.43;;;20.53;;
669;SDS011;317;48.758;9.302;2022-09-12T03:35:07;23.33;;;21.63;;
669;SDS011;317;48.758;9.302;2022-09-12T03:37:34;23.27;;;21.43;;
669;SDS011;317;48.758;9.302;2022-09-12T03:40:01;24.67;;;22.57;;
669;SDS011;317;48.758;9.302;2022-09-12T03:42:28;24.33;;;22.43;;
669;SDS011;317;48.758;9.302;2022-09-12T03:44:55;27.80;;;25.57;;
669;SDS011;317;48.758;9.302;2022-09-12T03:47:22;29.20;;;26.90;;
669;SDS011;317;48.758;9.302;2022-09-12T03:49:49;26.03;;;24.13;;
669;SDS011;317;48.758;9.302;2022-09-12T03:52:17;26.70;;;24.60;;
669;SDS011;317;48.758;9.302;2022-09-12T03:54:44;28.00;;;25.83;;
669;SDS011;317;48.758;9.302;2022-09-12T03:57:11;27.43;;;25.43;;
669;SDS011;317;48.758;9.302;2022-09-12T03:59:38;27.70;;;25.60;;
669;SDS011;317;48.758;9.302;2022-09-12T04:02:04;26.23;;;24.10;;
669;SDS011;317;48.758;9.302;2022-09-12T04:04:31;24.80;;;22.67;;
669;SDS011;317;48.758;9.302;2022-09-12T04:06:58;25.97;;;23.80;;
669;SDS011;317;48.758;9.302;2022-09-12T04:09:26;24.33;;;22.40;;
669;SDS011;317;48.758;9.302;2022-09-12T04:11:53;23.50;;;21.40;;
669;SDS011;317;48.758;9.302;2022-09-12T04:14:20;23.63;;;21.70;;
669;SDS011;317;48.758;9.302;2022-09-12T04:16:46;22.23;;;20.53;;
669;SDS011;317;48.758;9.302;2022-09-12T04:19:13;21.30;;;19.80;;
669;SDS011;317;48.758;9.302;2022-09-12T04:21:40;21.30;;;19.70;;
669;SDS011;317;48.758;9.302;2022-09-12T04:24:06;20.70;;;19.00;;
669;SDS011;317;48.758;9.302;2022-09-12T04:26:34;20.17;;;18.77;;
669;SDS011;317;48.758;9.302;2022-09-12T04:29:01;21.53;;;19.53;;
669;SDS011;317;48.758;9.302;2022-09-12T04:31:28;20.47;;;18.90;;
669;SDS011;317;48.758;9.302;2022-09-12T04:33:55;20.40;;;18.60;;
669;SDS011;317;48.758;9.302;2022-09-12T04:36:24;19.37;;;17.77;;
669;SDS011;317;48.758;9.302;2022-09-12T04:38:51;19.17;;;17.77;;
669;SDS011;317;48.758;9.302;2022-09-12T04:41:19;18.23;;;16.73;;
669;SDS011;317;48.758;9.302;2022-09-12T04:43:51;17.03;;;15.73;;
669;SDS011;317;48.758;9.302;2022-09-12T04:46:19;18.53;;;16.97;;
669;SDS011;317;48.758;9.302;2022-09-12T04:48:46;16.10;;;14.93;;
669;SDS011;317;48.758;9.302;2022-09-12T04:51:14;16.27;;;15.17;;
669;SDS011;317;48.758;9.302;2022-09-12T04:53:46;16.40;;;15.13;;
669;SDS011;317;48.758;9.302;2022-09-12T04:56:13;17.67;;;16.27;;
669;SDS011;317;48.758;9.302;2022-09-12T04:58:40;17.27;;;15.87;;
669;SDS011;317;48.758;9.302;2022-09-12T05:01:09;15.00;;;13.90;;
669;SDS011;317;48.758;9.302;2022-09-12T05:03:38;15.30;;;14.17;;
669;SDS011;317;48.758;9.302;2022-09-12T05:06:07;16.00;;;14.87;;
669;SDS011;317;48.758;9.302;2022-09-12T05:08:35;15.57;;;14.43;;
669;SDS011;317;48.758;9.302;2022-09-12T05:11:03;15.17;;;14.17;;
669;SDS011;317;48.758;9.302;2022-09-12T05:13:31;15.13;;;14.03;;
669;SDS011;317;48.758;9.302;2022-09-12T05:15:59;14.93;;;13.70;;
669;SDS011;317;48.758;9.302;2022-09-12T05:18:29;14.70;;;13.50;;
669;SDS011;317;48.758;9.302;2022-09-12T05:20:57;15.10;;;13.90;;
669;SDS011;317;48.758;9.302;2022-09-12T05:23:24;15.63;;;14.13;;
669;SDS011;317;48.758;9.302;2022-09-12T05:25:52;18.23;;;16.70;;
669;SDS011;317;48.758;9.302;2022-09-12T05:28:21;17.10;;;15.50;;
669;SDS011;317;48.758;9.302;2022-09-12T05:30:58;20.00;;;18.03;;
669;SDS011;317;48.758;9.302;2022-09-12T05:33:25;19.70;;;18.20;;
669;SDS011;317;48.758;9.302;2022-09-12T05:35:53;18.30;;;16.50;;
669;SDS011;317;48.758;9.302;2022-09-12T05:38:20;18.67;;;17.17;;
669;SDS011;317;48.758;9.302;2022-09-12T05:40:48;18.23;;;16.77;;
669;SDS011;317;48.758;9.302;2022-09-12T05:43:15;17.33;;;15.87;;
669;SDS011;317;48.758;9.302;2022-09-12T05:45:41;17.37;;;15.60;;
669;SDS011;317;48.758;9.302;2022-09-12T05:48:08;18.30;;;16.80;;
669;SDS011;317;48.758;9.302;2022-09-12T05:50:35;17.57;;;15.97;;
669;SDS011;317;48.758;9.302;2022-09-12T05:53:03;19.07;;;17.40;;
669;SDS011;317;48.758;9.302;2022-09-12T05:55:29;17.90;;;16.40;;
669;SDS011;317;48.758;9.302;2022-09-12T05:57:57;19.20;;;17.37;;
669;SDS011;317;48.758;9.302;2022-09-12T06:00:23;17.97;;;16.67;;
669;SDS011;317;48.758;9.302;2022-09-12T06:02:50;56.00;;;20.50;;
669;SDS011;317;48.758;9.302;2022-09-12T06:05:18;19.43;;;17.63;;
669;SDS011;317;48.758;9.302;2022-09-12T06:07:45;34.97;;;18.13;;
669;SDS011;317;48.758;9.302;2022-09-12T06:10:13;31.43;;;18.47;;
669;SDS011;317;48.758;9.302;2022-09-12T06:12:41;22.53;;;17.77;;
669;SDS011;317;48.758;9.302;2022-09-12T06:15:09;21.73;;;19.93;;
669;SDS011;317;48.758;9.302;2022-09-12T06:17:35;21.47;;;19.63;;
669;SDS011;317;48.758;9.302;2022-09-12T06:20:02;21.53;;;19.83;;
669;SDS011;317;48.758;9.302;2022-09-12T06:22:29;21.80;;;19.70;;
669;SDS011;317;48.758;9.302;2022-09-12T06:24:56;19.17;;;17.47;;
669;SDS011;317;48.758;9.302;2022-09-12T06:27:24;21.17;;;19.27;;
669;SDS011;317;48.758;9.302;2022-09-12T06:29:51;19.97;;;17.90;;
669;SDS011;317;48.758;9.302;2022-09-12T06:32:17;23.77;;;17.23;;
669;SDS011;317;48.758;9.302;2022-09-12T06:34:44;16.73;;;15.33;;
669;SDS011;317;48.758;9.302;2022-09-12T06:37:12;15.43;;;14.33;;
669;SDS011;317;48.758;9.302;2022-09-12T06:39:39;16.47;;;15.27;;
669;SDS011;317;48.758;9.302;2022-09-12T06:42:06;15.57;;;14.47;;
669;SDS011;317;48.758;9.302;2022-09-12T06:44:34;17.33;;;15.73;;
669;SDS011;317;48.758;9.302;2022-09-12T06:47:01;13.67;;;12.53;;
669;SDS011;317;48.758;9.302;2022-09-12T06:49:28;13.23;;;12.13;;
669;SDS011;317;48.758;9.302;2022-09-12T06:51:55;14.47;;;13.47;;
669;SDS011;317;48.758;9.302;2022-09-12T06:54:21;14.13;;;13.13;;
669;SDS011;317;48.758;9.302;2022-09-12T06:56:50;15.47;;;14.00;;
669;SDS011;317;48.758;9.302;2022-09-12T06:59:17;13.83;;;12.80;;
669;SDS011;317;48.758;9.302;2022-09-12T07:01:45;14.23;;;13.23;;
669;SDS011;317;48.758;9.302;2022-09-12T07:04:12;15.00;;;13.40;;
669;SDS011;317;48.758;9.302;2022-09-12T07:06:40;13.60;;;12.70;;
669;SDS011;317;48.758;9.302;2022-09-12T07:09:09;13.87;;;12.87;;
669;SDS011;317;48.758;9.302;2022-09-12T07:11:38;13.63;;;12.60;;
669;SDS011;317;48.758;9.302;2022-09-12T07:14:06;12.83;;;11.87;;
669;SDS011;317;48.758;9.302;2022-09-12T07:16:36;13.77;;;12.73;;
669;SDS011;317;48.758;9.302;2022-09-12T07:19:05;14.00;;;12.70;;
669;SDS011;317;48.758;9.302;2022-09-12T07:21:33;13.43;;;12.33;;
669;SDS011;317;48.758;9.302;2022-09-12T07:24:04;13.23;;;12.23;;
669;SDS011;317;48.758;9.302;2022-09-12T07:26:35;12.70;;;11.70;;
669;SDS011;317;48.758;9.302;2022-09-12T07:29:02;13.70;;;12.70;;
669;SDS011;317;48.758;9.302;2022-09-12T07:31:30;13.50;;;12.50;;
669;SDS011;317;48.758;9.302;2022-09-12T07:33:57;13.70;;;12.70;;
669;SDS011;317;48.758;9.302;2022-09-12T07:36:25;12.60;;;11.50;;
669;SDS011;317;48.758;9.302;2022-09-12T07:38:53;11.90;;;11.07;;
669;SDS011;317;48.758;9.302;2022-09-12T07:41:21;13.03;;;11.83;;
669;SDS011;317;48.758;9.302;2022-09-12T07:43:50;11.47;;;10.57;;
669;SDS011;317;48.758;9.302;2022-09-12T07:46:17;11.40;;;10.60;;
669;SDS011;317;48.758;9.302;2022-09-12T07:48:47;12.50;;;11.40;;
669;SDS011;317;48.758;9.302;2022-09-12T07:51:15;12.40;;;11.30;;
669;SDS011;317;48.758;9.302;2022-09-12T07:53:44;12.37;;;11.47;;
669;SDS011;317;48.758;9.302;2022-09-12T07:56:11;11.67;;;10.77;;
669;SDS011;317;48.758;9.302;2022-09-12T07:58:39;10.80;;;10.00;;
669;SDS011;317;48.758;9.302;2022-09-12T08:01:07;12.40;;;11.30;;
669;SDS011;317;48.758;9.302;2022-09-12T08:03:38;11.10;;;9.97;;
669;SDS011;317;48.758;9.302;2022-09-12T08:06:05;10.00;;;9.20;;
669;SDS011;317;48.758;9.302;2022-09-12T08:08:33;10.47;;;9.67;;
669;SDS011;317;48.758;9.302;2022-09-12T08:11:02;10.93;;;10.00;;
669;SDS011;317;48.758;9.302;2022-09-12T08:13:31;9.83;;;9.13;;
669;SDS011;317;48.758;9.302;2022-09-12T08:15:59;9.87;;;9.17;;
669;SDS011;317;48.758;9.302;2022-09-12T08:18:27;10.17;;;9.37;;
669;SDS011;317;48.758;9.302;2022-09-12T08:20:56;9.43;;;8.53;;
669;SDS011;317;48.758;9.302;2022-09-12T08:23:26;8.67;;;8.07;;
669;SDS011;317;48.758;9.302;2022-09-12T08:25:54;9.57;;;8.77;;
669;SDS011;317;48.758;9.302;2022-09-12T08:28:23;9.90;;;9.07;;
669;SDS011;317;48.758;9.302;2022-09-12T08:30:50;8.47;;;7.90;;
669;SDS011;317;48.758;9.302;2022-09-12T08:33:17;7.00;;;6.50;;
669;SDS011;317;48.758;9.302;2022-09-12T08:35:44;8.13;;;7.63;;
669;SDS011;317;48.758;9.302;2022-09-12T08:38:11;9.30;;;8.60;;
669;SDS011;317;48.758;9.302;2022-09-12T08:40:41;7.77;;;7.07;;
669;SDS011;317;48.758;9.302;2022-09-12T08:43:17;8.00;;;7.40;;
669;SDS011;317;48.758;9.302;2022-09-12T08:45:59;6.50;;;6.10;;
669;SDS011;317;48.758;9.302;2022-09-12T08:48:30;7.00;;;6.50;;
669;SDS011;317;48.758;9.302;2022-09-12T08:50:57;6.60;;;5.77;;
669;SDS011;317;48.758;9.302;2022-09-12T08:53:25;8.40;;;6.10;;
669;SDS011;317;48.758;9.302;2022-09-12T08:55:55;6.40;;;5.97;;
669;SDS011;317;48.758;9.302;2022-09-12T08:58:26;6.03;;;5.60;;
669;SDS011;317;48.758;9.302;2022-09-12T09:00:55;5.20;;;4.80;;
669;SDS011;317;48.758;9.302;2022-09-12T09:07:00;4.30;;;4.00;;
669;SDS011;317;48.758;9.302;2022-09-12T09:09:48;5.07;;;4.67;;
669;SDS011;317;48.758;9.302;2022-09-12T09:12:34;5.93;;;4.43;;
669;SDS011;317;48.758;9.302;2022-09-12T09:15:13;3.40;;;3.20;;
669;SDS011;317;48.758;9.302;2022-09-12T09:17:49;3.40;;;3.10;;
669;SDS011;317;48.758;9.302;2022-09-12T09:20:22;3.43;;;3.13;;
669;SDS011;317;48.758;9.302;2022-09-12T09:22:54;3.70;;;3.43;;
669;SDS011;317;48.758;9.302;2022-09-12T09:25:28;3.73;;;2.97;;
669;SDS011;317;48.758;9.302;2022-09-12T09:28:06;3.53;;;2.50;;
669;SDS011;317;48.758;9.302;2022-09-12T09:30:42;3.73;;;2.77;;
669;SDS011;317;48.758;9.302;2022-09-12T09:33:13;3.17;;;2.87;;
669;SDS011;317;48.758;9.302;2022-09-12T09:35:45;4.57;;;3.10;;
669;SDS011;317;48.758;9.302;2022-09-12T09:38:17;3.50;;;3.20;;
669;SDS011;317;48.758;9.302;2022-09-12T09:40:51;3.40;;;3.20;;
669;SDS011;317;48.758;9.302;2022-09-12T09:43:31;3.30;;;2.90;;
669;SDS011;317;48.758;9.302;2022-09-12T09:45:59;4.20;;;2.77;;
669;SDS011;317;48.758;9.302;2022-09-12T09:48:26;2.77;;;2.67;;
669;SDS011;317;48.758;9.302;2022-09-12T09:50:56;2.70;;;2.60;;
669;SDS011;317;48.758;9.302;2022-09-12T09:53:27;3.03;;;2.53;;
669;SDS011;317;48.758;9.302;2022-09-12T09:56:00;2.40;;;2.23;;
669;SDS011;317;48.758;9.302;2022-09-12T09:58:30;3.43;;;2.70;;
669;SDS011;317;48.758;9.302;2022-09-12T10:01:00;3.00;;;2.80;;
669;SDS011;317;48.758;9.302;2022-09-12T10:03:29;3.17;;;2.97;;
669;SDS011;317;48.758;9.302;2022-09-12T10:05:58;3.23;;;2.50;;
669;SDS011;317;48.758;9.302;2022-09-12T10:08:27;2.93;;;2.70;;
669;SDS011;317;48.758;9.302;2022-09-12T10:10:56;3.30;;;2.73;;
669;SDS011;317;48.758;9.302;2022-09-12T10:13:36;2.83;;;2.67;;
669;SDS011;317;48.758;9.302;2022-09-12T10:16:16;2.70;;;2.50;;
669;SDS011;317;48.758;9.302;2022-09-12T10:18:46;2.23;;;2.13;;
669;SDS011;317;48.758;9.302;2022-09-12T10:21:26;2.20;;;2.10;;
669;SDS011;317;48.758;9.302;2022-09-12T10:23:57;1.83;;;1.70;;
669;SDS011;317;48.758;9.302;2022-09-12T10:26:30;2.50;;;2.13;;
669;SDS011;317;48.758;9.302;2022-09-12T10:29:02;3.17;;;2.17;;
669;SDS011;317;48.758;9.302;2022-09-12T10:31:40;2.17;;;2.00;;
669;SDS011;317;48.758;9.302;2022-09-12T10:34:17;2.50;;;1.93;;
669;SDS011;317;48.758;9.302;2022-09-12T10:36:52;1.93;;;1.83;;
669;SDS011;317;48.758;9.302;2022-09-12T10:39:24;1.67;;;1.57;;
669;SDS011;317;48.758;9.302;2022-09-12T10:41:51;1.80;;;1.70;;
669;SDS011;317;48.758;9.302;2022-09-12T10:44:23;1.93;;;1.83;;
669;SDS011;317;48.758;9.302;2022-09-12T10:46:53;3.63;;;1.60;;
669;SDS011;317;48.758;9.302;2022-09-12T10:49:24;1.90;;;1.80;;
669;SDS011;317;48.758;9.302;2022-09-12T10:51:53;2.00;;;1.90;;
669;SDS011;317;48.758;9.302;2022-09-12T10:54:21;1.90;;;1.80;;
669;SDS011;317;48.758;9.302;2022-09-12T10:57:08;2.17;;;1.80;;
669;SDS011;317;48.758;9.302;2022-09-12T10:59:57;1.80;;;1.67;;
669;SDS011;317;48.758;9.302;2022-09-12T11:02:34;2.00;;;1.80;;
669;SDS011;317;48.758;9.302;2022-09-12T11:05:13;1.70;;;1.60;;
669;SDS011;317;48.758;9.302;2022-09-12T11:07:47;1.90;;;1.80;;
669;SDS011;317;48.758;9.302;2022-09-12T11:10:23;1.50;;;1.40;;
669;SDS011;317;48.758;9.302;2022-09-12T11:13:01;1.60;;;1.50;;
669;SDS011;317;48.758;9.302;2022-09-12T11:15:42;1.97;;;1.87;;
669;SDS011;317;48.758;9.302;2022-09-12T11:18:29;1.90;;;1.80;;
669;SDS011;317;48.758;9.302;2022-09-12T11:21:09;1.70;;;1.60;;
669;SDS011;317;48.758;9.302;2022-09-12T11:23:55;4.43;;;1.50;;
669;SDS011;317;48.758;9.302;2022-09-12T11:26:56;3.80;;;1.53;;
669;SDS011;317;48.758;9.302;2022-09-12T11:29:32;1.77;;;1.67;;
669;SDS011;317;48.758;9.302;2022-09-12T11:35:05;1.70;;;1.60;;
669;SDS011;317;48.758;9.302;2022-09-12T11:37:48;1.50;;;1.40;;
669;SDS011;317;48.758;9.302;2022-09-12T11:40:40;2.40;;;1.50;;
669;SDS011;317;48.758;9.302;2022-09-12T11:43:14;1.20;;;1.10;;
669;SDS011;317;48.758;9.302;2022-09-12T11:45:48;2.50;;;1.30;;
669;SDS011;317;48.758;9.302;2022-09-12T11:48:18;1.20;;;1.10;;
669;SDS011;317;48.758;9.302;2022-09-12T11:50:56;1.80;;;1.03;;
669;SDS011;317;48.758;9.302;2022-09-12T11:53:26;1.10;;;1.00;;
669;SDS011;317;48.758;9.302;2022-09-12T11:55:59;1.50;;;1.40;;
669;SDS011;317;48.758;9.302;2022-09-12T11:58:31;2.00;;;1.60;;
669;SDS011;317;48.758;9.302;2022-09-12T12:01:00;1.93;;;1.83;;
669;SDS011;317;48.758;9.302;2022-09-12T12:03:38;2.00;;;1.90;;
669;SDS011;317;48.758;9.302;2022-09-12T12:06:11;2.13;;;1.60;;
669;SDS011;317;48.758;9.302;2022-09-12T12:08:44;1.43;;;1.33;;
669;SDS011;317;48.758;9.302;2022-09-12T12:11:13;1.83;;;1.73;;
669;SDS011;317;48.758;9.302;2022-09-12T12:13:44;1.30;;;1.20;;
669;SDS011;317;48.758;9.302;2022-09-12T12:16:15;1.50;;;1.40;;
669;SDS011;317;48.758;9.302;2022-09-12T12:18:52;1.30;;;1.20;;
669;SDS011;317;48.758;9.302;2022-09-12T12:21:28;2.30;;;1.40;;
669;SDS011;317;48.758;9.302;2022-09-12T12:24:10;3.60;;;1.40;;
669;SDS011;317;48.758;9.302;2022-09-12T12:26:41;1.17;;;1.07;;
669;SDS011;317;48.758;9.302;2022-09-12T12:29:10;1.40;;;1.30;;
669;SDS011;317;48.758;9.302;2022-09-12T12:34:44;1.93;;;1.20;;
669;SDS011;317;48.758;9.302;2022-09-12T12:40:20;1.90;;;1.70;;
669;SDS011;317;48.758;9.302;2022-09-12T12:45:47;1.50;;;1.23;;
669;SDS011;317;48.758;9.302;2022-09-12T12:48:33;1.30;;;1.10;;
669;SDS011;317;48.758;9.302;2022-09-12T12:51:36;1.13;;;1.00;;
669;SDS011;317;48.758;9.302;2022-09-12T13:00:27;1.23;;;0.90;;
669;SDS011;317;48.758;9.302;2022-09-12T13:02:58;1.03;;;0.93;;
669;SDS011;317;48.758;9.302;2022-09-12T13:05:36;1.63;;;0.80;;
669;SDS011;317;48.758;9.302;2022-09-12T13:08:05;1.80;;;0.93;;
669;SDS011;317;48.758;9.302;2022-09-12T13:10:35;1.10;;;1.10;;
669;SDS011;317;48.758;9.302;2022-09-12T13:13:05;1.30;;;0.90;;
669;SDS011;317;48.758;9.302;2022-09-12T13:15:47;1.00;;;0.90;;
669;SDS011;317;48.758;9.302;2022-09-12T13:18:17;1.10;;;1.00;;
669;SDS011;317;48.758;9.302;2022-09-12T13:20:50;1.17;;;0.75;;
669;SDS011;317;48.758;9.302;2022-09-12T13:23:21;2.22;;;1.08;;
669;SDS011;317;48.758;9.302;2022-09-12T13:25:51;2.03;;;1.08;;
669;SDS011;317;48.758;9.302;2022-09-12T13:28:21;0.90;;;0.85;;
669;SDS011;317;48.758;9.302;2022-09-12T13:30:53;1.02;;;0.90;;
669;SDS011;317;48.758;9.302;2022-09-12T13:33:25;1.10;;;1.00;;
669;SDS011;317;48.758;9.302;2022-09-12T13:39:04;1.25;;;1.05;;
669;SDS011;317;48.758;9.302;2022-09-12T13:41:44;1.23;;;1.00;;
669;SDS011;317;48.758;9.302;2022-09-12T13:44:36;1.35;;;1.25;;
669;SDS011;317;48.758;9.302;2022-09-12T13:47:07;1.20;;;1.10;;
669;SDS011;317;48.758;9.302;2022-09-12T13:49:38;1.80;;;1.20;;
669;SDS011;317;48.758;9.302;2022-09-12T13:52:07;2.45;;;1.35;;
669;SDS011;317;48.758;9.302;2022-09-12T13:54:40;1.02;;;0.85;;
669;SDS011;317;48.758;9.302;2022-09-12T13:57:24;1.88;;;1.05;;
669;SDS011;317;48.758;9.302;2022-09-12T13:59:55;0.93;;;0.93;;
669;SDS011;317;48.758;9.302;2022-09-12T14:02:24;1.10;;;1.00;;
669;SDS011;317;48.758;9.302;2022-09-12T14:04:52;1.05;;;0.95;;
669;SDS011;317;48.758;9.302;2022-09-12T14:07:38;1.20;;;1.10;;
669;SDS011;317;48.758;9.302;2022-09-12T14:10:20;1.20;;;1.10;;
669;SDS011;317;48.758;9.302;2022-09-12T14:12:55;1.50;;;1.13;;
669;SDS011;317;48.758;9.302;2022-09-12T14:15:26;1.77;;;1.17;;
669;SDS011;317;48.758;9.302;2022-09-12T14:17:56;0.90;;;0.70;;
669;SDS011;317;48.758;9.302;2022-09-12T14:20:25;1.25;;;1.08;;
669;SDS011;317;48.758;9.302;2022-09-12T14:22:55;1.10;;;1.00;;
669;SDS011;317;48.758;9.302;2022-09-12T14:25:25;6.43;;;1.23;;
669;SDS011;317;48.758;9.302;2022-09-12T14:28:01;0.93;;;0.93;;
669;SDS011;317;48.758;9.302;2022-09-12T14:30:30;1.27;;;1.00;;
669;SDS011;317;48.758;9.302;2022-09-12T14:35:46;1.27;;;0.90;;
669;SDS011;317;48.758;9.302;2022-09-12T14:38:18;1.10;;;1.00;;
669;SDS011;317;48.758;9.302;2022-09-12T14:40:50;1.98;;;0.90;;
669;SDS011;317;48.758;9.302;2022-09-12T14:43:24;1.27;;;0.90;;
669;SDS011;317;48.758;9.302;2022-09-12T14:45:55;1.10;;;1.00;;
669;SDS011;317;48.758;9.302;2022-09-12T14:48:24;0.95;;;0.90;;
669;SDS011;317;48.758;9.302;2022-09-12T14:50:53;1.77;;;1.17;;
669;SDS011;317;48.758;9.302;2022-09-12T14:53:21;1.05;;;0.90;;
669;SDS011;317;48.758;9.302;2022-09-12T14:55:51;1.20;;;1.10;;
669;SDS011;317;48.758;9.302;2022-09-12T14:58:23;1.20;;;1.10;;
669;SDS011;317;48.758;9.302;2022-09-12T15:00:56;1.40;;;1.30;;
669;SDS011;317;48.758;9.302;2022-09-12T15:03:27;1.42;;;0.98;;
669;SDS011;317;48.758;9.302;2022-09-12T15:05:56;1.23;;;1.13;;
669;SDS011;317;48.758;9.302;2022-09-12T15:08:24;1.00;;;1.00;;
669;SDS011;317;48.758;9.302;2022-09-12T15:10:52;2.97;;;1.27;;
669;SDS011;317;48.758;9.302;2022-09-12T15:13:20;1.30;;;1.20;;
669;SDS011;317;48.758;9.302;2022-09-12T15:15:50;1.58;;;1.13;;
669;SDS011;317;48.758;9.302;2022-09-12T15:18:19;3.03;;;1.27;;
669;SDS011;317;48.758;9.302;2022-09-12T15:20:47;1.02;;;0.93;;
669;SDS011;317;48.758;9.302;2022-09-12T15:23:20;2.85;;;1.40;;
669;SDS011;317;48.758;9.302;2022-09-12T15:25:59;1.65;;;1.10;;
669;SDS011;317;48.758;9.302;2022-09-12T15:28:27;1.00;;;0.90;;
669;SDS011;317;48.758;9.302;2022-09-12T15:30:55;1.60;;;1.30;;
669;SDS011;317;48.758;9.302;2022-09-12T15:33:26;1.38;;;1.13;;
669;SDS011;317;48.758;9.302;2022-09-12T15:35:52;1.20;;;1.10;;
669;SDS011;317;48.758;9.302;2022-09-12T15:38:19;1.05;;;1.05;;
669;SDS011;317;48.758;9.302;2022-09-12T15:40:49;1.40;;;1.10;;
669;SDS011;317;48.758;9.302;2022-09-12T15:43:18;1.50;;;1.35;;
669;SDS011;317;48.758;9.302;2022-09-12T15:45:45;2.88;;;1.30;;
669;SDS011;317;48.758;9.302;2022-09-12T15:48:13;1.35;;;1.25;;
669;SDS011;317;48.758;9.302;2022-09-12T15:50:41;2.13;;;1.25;;
669;SDS011;317;48.758;9.302;2022-09-12T15:53:09;2.83;;;1.20;;
669;SDS011;317;48.758;9.302;2022-09-12T15:55:39;3.70;;;1.42;;
669;SDS011;317;48.758;9.302;2022-09-12T15:58:06;1.98;;;1.30;;
669;SDS011;317;48.758;9.302;2022-09-12T16:00:33;2.08;;;1.20;;
669;SDS011;317;48.758;9.302;2022-09-12T16:03:00;1.73;;;1.63;;
669;SDS011;317;48.758;9.302;2022-09-12T16:05:27;1.58;;;1.48;;
669;SDS011;317;48.758;9.302;2022-09-12T16:07:55;1.45;;;1.35;;
669;SDS011;317;48.758;9.302;2022-09-12T16:10:23;5.43;;;1.60;;
669;SDS011;317;48.758;9.302;2022-09-12T16:12:52;1.70;;;1.52;;
669;SDS011;317;48.758;9.302;2022-09-12T16:15:21;3.22;;;1.20;;
669;SDS011;317;48.758;9.302;2022-09-12T16:17:49;1.88;;;1.60;;
669;SDS011;317;48.758;9.302;2022-09-12T16:20:16;1.60;;;1.50;;
669;SDS011;317;48.758;9.302;2022-09-12T16:22:43;2.05;;;1.42;;
669;SDS011;317;48.758;9.302;2022-09-12T16:25:11;5.40;;;1.50;;
669;SDS011;317;48.758;9.302;2022-09-12T16:27:38;1.42;;;1.33;;